Time;durP1;ratioP1;P1;durP2;ratioP2;P2;SDS_P1;SDS_P2;PMS_P1;PMS_P2;Temp;Humidity;BMP_temperature;BMP_pressure;BME280_temperature;BME280_humidity;BME280_pressure;Samples;Min_cycle;Max_cycle;Signal;HPM_P1;HPM_P2
2021/01/25 00:02:20;;;;;;;15.10;7.53;;;-1.90;88.30;;;;;;5065150;28;20464;-85
2021/01/25 00:04:47;;;;;;;12.90;7.90;;;-1.80;90.10;;;;;;5061850;28;20447;-85
2021/01/25 00:07:14;;;;;;;10.33;8.17;;;-1.80;90.20;;;;;;5059381;28;20450;-84
2021/01/25 00:09:41;;;;;;;17.97;7.67;;;-1.80;90.60;;;;;;5061382;28;20454;-85
2021/01/25 00:12:07;;;;;;;12.57;8.10;;;-1.70;90.50;;;;;;5067742;28;20486;-84
2021/01/25 00:14:34;;;;;;;9.13;8.07;;;-1.70;90.30;;;;;;5062009;28;20447;-83
2021/01/25 00:17:01;;;;;;;10.57;7.40;;;-1.70;89.70;;;;;;5064855;28;20961;-84
2021/01/25 00:19:28;;;;;;;8.53;7.63;;;-1.60;90.40;;;;;;5048558;28;20461;-84
2021/01/25 00:21:54;;;;;;;8.77;7.77;;;-1.70;90.00;;;;;;5060249;28;20568;-85
2021/01/25 00:24:22;;;;;;;12.20;8.10;;;-1.70;90.40;;;;;;5060933;28;20466;-84
2021/01/25 00:26:50;;;;;;;11.17;8.53;;;-1.60;91.80;;;;;;5048322;28;20962;-84
2021/01/25 00:29:17;;;;;;;9.57;8.17;;;-1.60;89.60;;;;;;5063687;28;20454;-85
2021/01/25 00:31:44;;;;;;;11.00;7.50;;;-1.80;88.20;;;;;;5066047;28;20517;-84
2021/01/25 00:34:11;;;;;;;13.57;8.40;;;-1.90;88.10;;;;;;5064763;28;20463;-84
2021/01/25 00:36:38;;;;;;;8.00;6.57;;;-1.80;90.40;;;;;;5063285;28;20457;-86
2021/01/25 00:39:05;;;;;;;10.50;8.10;;;-1.70;90.40;;;;;;5070998;28;20521;-86
2021/01/25 00:41:34;;;;;;;9.30;8.33;;;-1.80;90.60;;;;;;5072391;28;20495;-82
2021/01/25 00:44:03;;;;;;;12.00;8.40;;;-1.70;91.10;;;;;;5067853;28;20455;-84
2021/01/25 00:46:30;;;;;;;7.80;7.00;;;-1.70;90.80;;;;;;5064383;28;20455;-85
2021/01/25 00:48:57;;;;;;;9.00;7.40;;;-1.80;89.50;;;;;;5062878;28;20797;-84
2021/01/25 00:51:25;;;;;;;9.27;7.03;;;-1.90;90.40;;;;;;5059937;28;20448;-85
2021/01/25 00:53:52;;;;;;;9.40;8.10;;;-2.00;89.90;;;;;;5063546;28;20472;-86
2021/01/25 00:56:18;;;;;;;10.90;7.03;;;-2.00;89.30;;;;;;5066497;28;20450;-84
2021/01/25 00:58:45;;;;;;;10.53;7.93;;;-2.10;90.30;;;;;;5067292;28;20459;-83
2021/01/25 01:01:12;;;;;;;8.20;7.37;;;-2.00;91.30;;;;;;5067411;28;20474;-86
2021/01/25 01:03:39;;;;;;;7.70;6.90;;;-2.00;91.80;;;;;;5072202;28;20454;-85
2021/01/25 01:06:05;;;;;;;9.83;6.83;;;-2.00;92.00;;;;;;5059554;28;20541;-87
2021/01/25 01:08:34;;;;;;;7.43;5.93;;;-2.00;91.40;;;;;;5079794;28;20476;-83
2021/01/25 01:11:00;;;;;;;8.63;6.10;;;-2.00;91.20;;;;;;5066155;28;20482;-85
2021/01/25 01:13:27;;;;;;;7.93;7.10;;;-2.10;90.90;;;;;;5068792;28;20443;-85
2021/01/25 01:15:53;;;;;;;8.80;7.00;;;-2.10;91.40;;;;;;5072051;28;20430;-85
2021/01/25 01:18:21;;;;;;;7.33;6.07;;;-2.10;90.90;;;;;;5073705;28;20492;-85
2021/01/25 01:20:48;;;;;;;10.23;6.67;;;-2.10;91.10;;;;;;5081846;28;20490;-86
2021/01/25 01:23:15;;;;;;;8.93;7.17;;;-2.20;91.30;;;;;;5072815;28;20502;-84
2021/01/25 01:25:43;;;;;;;8.37;6.67;;;-2.20;91.40;;;;;;5072695;28;20748;-84
2021/01/25 01:28:09;;;;;;;7.87;6.73;;;-2.20;91.90;;;;;;5067960;28;20453;-85
2021/01/25 01:30:36;;;;;;;10.23;7.17;;;-2.20;91.80;;;;;;5071631;28;20446;-84
2021/01/25 01:33:03;;;;;;;7.70;6.27;;;-2.40;91.20;;;;;;5039464;28;20447;-85
2021/01/25 01:35:30;;;;;;;8.40;6.63;;;-2.40;91.10;;;;;;5063361;28;20449;-86
2021/01/25 01:37:57;;;;;;;11.00;8.07;;;-2.40;91.50;;;;;;5055995;28;20453;-83
2021/01/25 01:40:24;;;;;;;7.93;6.07;;;-2.40;92.00;;;;;;5068879;28;20498;-84
2021/01/25 01:42:52;;;;;;;7.00;5.90;;;-2.40;91.90;;;;;;5067178;28;20429;-83
2021/01/25 01:45:19;;;;;;;7.93;6.37;;;-2.40;92.80;;;;;;5071164;28;20458;-85
2021/01/25 01:47:45;;;;;;;9.80;7.10;;;-2.40;93.20;;;;;;5073482;28;20473;-85
2021/01/25 01:50:13;;;;;;;7.60;6.77;;;-2.40;93.10;;;;;;5074148;28;20484;-84
2021/01/25 01:52:41;;;;;;;10.97;7.77;;;-2.50;92.40;;;;;;5078925;28;20470;-85
2021/01/25 01:55:10;;;;;;;9.80;7.13;;;-2.60;92.70;;;;;;5074738;28;20443;-86
2021/01/25 01:57:41;;;;;;;8.77;6.80;;;-2.60;92.20;;;;;;5077712;28;20447;-85
2021/01/25 02:00:09;;;;;;;9.10;7.10;;;-2.60;92.50;;;;;;5077308;28;20467;-85
2021/01/25 02:02:37;;;;;;;10.20;6.97;;;-2.70;93.00;;;;;;5078518;28;20464;-84
2021/01/25 02:05:04;;;;;;;10.57;7.50;;;-2.80;92.60;;;;;;5076605;28;20460;-84
2021/01/25 02:07:34;;;;;;;10.40;7.33;;;-2.90;92.80;;;;;;5076461;28;20425;-84
2021/01/25 02:10:04;;;;;;;7.77;6.83;;;-2.90;92.30;;;;;;5069334;28;20456;-87
2021/01/25 02:12:34;;;;;;;9.43;6.53;;;-2.90;94.40;;;;;;5070689;28;20442;-85
2021/01/25 02:15:03;;;;;;;7.07;6.37;;;-2.80;94.60;;;;;;5080072;28;20464;-84
2021/01/25 02:17:32;;;;;;;8.60;6.63;;;-2.90;94.20;;;;;;5073948;28;20450;-84
2021/01/25 02:20:04;;;;;;;8.80;7.03;;;-2.90;95.30;;;;;;5076621;28;20535;-84
2021/01/25 02:23:03;;;;;;;11.37;6.97;;;-2.90;93.70;;;;;;5070680;28;20473;-84
2021/01/25 02:25:42;;;;;;;10.87;6.60;;;-2.90;93.20;;;;;;5076698;28;20522;-85
2021/01/25 02:28:10;;;;;;;8.50;6.97;;;-3.00;93.90;;;;;;5077474;28;20438;-84
2021/01/25 02:30:38;;;;;;;8.40;6.90;;;-3.00;93.80;;;;;;5074463;28;20447;-79
2021/01/25 02:33:07;;;;;;;8.57;5.97;;;-3.00;94.60;;;;;;5067064;28;20978;-81
2021/01/25 02:35:35;;;;;;;8.10;6.23;;;-3.10;94.70;;;;;;5074349;28;20453;-84
2021/01/25 02:38:06;;;;;;;12.27;7.30;;;-3.10;94.30;;;;;;5068874;28;20449;-83
2021/01/25 02:40:34;;;;;;;9.03;6.60;;;-3.10;93.70;;;;;;5077462;28;20473;-82
2021/01/25 02:43:01;;;;;;;10.77;7.60;;;-3.20;93.20;;;;;;5069948;28;20452;-84
2021/01/25 02:45:29;;;;;;;9.60;7.27;;;-3.10;94.90;;;;;;5071822;28;20913;-82
2021/01/25 02:47:57;;;;;;;8.47;7.13;;;-3.00;95.70;;;;;;5071436;28;20476;-81
2021/01/25 02:50:24;;;;;;;8.13;6.80;;;-3.10;95.80;;;;;;5068716;28;20443;-82
2021/01/25 02:52:50;;;;;;;8.03;7.23;;;-3.00;95.20;;;;;;5071275;28;20489;-83
2021/01/25 02:55:17;;;;;;;10.93;7.77;;;-3.00;94.50;;;;;;5073044;28;20480;-83
2021/01/25 02:57:45;;;;;;;10.37;7.43;;;-3.00;93.90;;;;;;5067194;28;20461;-83
2021/01/25 03:00:15;;;;;;;7.77;6.63;;;-3.10;93.30;;;;;;5070994;28;20479;-86
2021/01/25 03:02:45;;;;;;;12.23;6.33;;;-3.10;93.30;;;;;;5071815;28;20476;-82
2021/01/25 03:05:12;;;;;;;7.00;6.30;;;-3.20;93.10;;;;;;5075269;28;20496;-82
2021/01/25 03:07:41;;;;;;;8.40;6.37;;;-3.20;93.30;;;;;;5069241;28;20455;-83
2021/01/25 03:10:09;;;;;;;8.73;7.70;;;-3.30;92.40;;;;;;5069844;28;20457;-83
2021/01/25 03:12:36;;;;;;;11.53;6.70;;;-3.20;92.50;;;;;;5069752;28;20521;-85
2021/01/25 03:15:06;;;;;;;9.53;6.73;;;-3.20;93.30;;;;;;5065071;28;20459;-84
2021/01/25 03:17:32;;;;;;;8.57;6.47;;;-3.20;93.40;;;;;;5074801;28;20487;-84
2021/01/25 03:19:59;;;;;;;9.07;6.37;;;-3.20;93.60;;;;;;5071185;28;20474;-86
2021/01/25 03:22:26;;;;;;;7.90;6.57;;;-3.30;93.10;;;;;;5080699;28;20497;-83
2021/01/25 03:24:52;;;;;;;10.17;7.00;;;-3.30;93.90;;;;;;5058766;28;20487;-83
2021/01/25 03:27:19;;;;;;;7.30;6.50;;;-3.30;92.80;;;;;;5078618;28;20461;-84
2021/01/25 03:29:45;;;;;;;9.60;6.27;;;-3.40;91.80;;;;;;5068667;28;20458;-82
2021/01/25 03:32:12;;;;;;;10.67;6.77;;;-3.40;91.90;;;;;;5067516;28;20434;-83
2021/01/25 03:34:38;;;;;;;9.43;6.80;;;-3.30;93.10;;;;;;5066509;28;20481;-82
2021/01/25 03:37:06;;;;;;;7.43;6.60;;;-3.30;92.80;;;;;;5056802;28;20509;-84
2021/01/25 03:39:32;;;;;;;8.70;6.43;;;-3.30;92.90;;;;;;5065431;28;20441;-82
2021/01/25 03:41:59;;;;;;;7.73;6.70;;;-3.30;92.60;;;;;;5064478;28;20484;-84
2021/01/25 03:44:25;;;;;;;7.07;6.37;;;-3.40;92.40;;;;;;5060488;28;20482;-82
2021/01/25 03:46:52;;;;;;;10.70;7.00;;;-3.50;92.80;;;;;;5064945;28;20474;-84
2021/01/25 03:49:19;;;;;;;8.23;7.27;;;-3.50;92.90;;;;;;5067977;28;20476;-81
2021/01/25 03:51:45;;;;;;;9.83;6.20;;;-3.70;92.80;;;;;;5065564;28;20453;-82
2021/01/25 03:54:13;;;;;;;9.60;7.13;;;-3.70;93.20;;;;;;5071338;28;20454;-81
2021/01/25 03:56:40;;;;;;;12.27;6.50;;;-3.70;94.30;;;;;;5070130;28;20456;-81
2021/01/25 03:59:08;;;;;;;9.90;7.47;;;-3.70;94.20;;;;;;5069691;28;20459;-82
2021/01/25 04:01:34;;;;;;;8.50;7.03;;;-3.70;93.60;;;;;;5070773;28;20492;-85
2021/01/25 04:04:01;;;;;;;7.50;6.67;;;-3.80;95.30;;;;;;5071349;28;20484;-85
2021/01/25 04:06:27;;;;;;;13.20;7.60;;;-3.80;94.80;;;;;;5076615;28;20471;-83
2021/01/25 04:08:53;;;;;;;11.90;8.43;;;-3.90;95.70;;;;;;5077716;28;20444;-82
2021/01/25 04:11:21;;;;;;;11.10;7.80;;;-3.80;97.70;;;;;;5070659;28;20484;-82
2021/01/25 04:13:47;;;;;;;9.00;7.90;;;-3.80;97.30;;;;;;5070680;28;20446;-81
2021/01/25 04:16:14;;;;;;;10.00;8.13;;;-3.70;97.00;;;;;;5067588;28;20539;-80
2021/01/25 04:18:40;;;;;;;9.93;7.20;;;-3.80;94.80;;;;;;5059656;28;20463;-82
2021/01/25 04:21:07;;;;;;;9.20;7.83;;;-3.70;93.80;;;;;;5063844;28;20521;-81
2021/01/25 04:23:33;;;;;;;10.03;7.50;;;-3.80;93.00;;;;;;5067525;28;20497;-84
2021/01/25 04:25:59;;;;;;;10.40;7.20;;;-3.80;92.40;;;;;;5065191;28;20478;-83
2021/01/25 04:28:27;;;;;;;9.70;7.50;;;-3.70;91.90;;;;;;5063791;28;20447;-83
2021/01/25 04:30:55;;;;;;;12.33;7.73;;;-3.60;91.00;;;;;;5066746;28;21076;-82
2021/01/25 04:33:21;;;;;;;11.67;8.13;;;-3.50;89.40;;;;;;5064948;28;20457;-81
2021/01/25 04:35:48;;;;;;;10.37;7.70;;;-3.40;88.50;;;;;;5067725;28;20439;-83
2021/01/25 04:38:14;;;;;;;10.87;7.70;;;-3.40;87.70;;;;;;5052255;28;20526;-81
2021/01/25 04:40:41;;;;;;;13.27;7.67;;;-3.40;88.00;;;;;;5068256;28;20487;-83
2021/01/25 04:43:08;;;;;;;10.13;7.47;;;-3.40;88.60;;;;;;5066707;28;20470;-81
2021/01/25 04:45:36;;;;;;;10.57;7.90;;;-3.20;89.70;;;;;;5066576;28;20465;-82
2021/01/25 04:48:03;;;;;;;8.60;6.70;;;-3.10;89.50;;;;;;5050114;28;20478;-82
2021/01/25 04:50:30;;;;;;;9.87;8.03;;;-2.90;88.00;;;;;;5066785;28;21084;-83
2021/01/25 04:52:57;;;;;;;9.50;6.90;;;-2.80;86.30;;;;;;5065190;28;20450;-82
2021/01/25 04:55:25;;;;;;;8.57;6.40;;;-2.80;85.00;;;;;;5073938;28;20438;-81
2021/01/25 04:57:54;;;;;;;11.20;7.03;;;-2.70;84.60;;;;;;5069724;28;20469;-83
2021/01/25 05:00:21;;;;;;;10.03;7.53;;;-2.70;83.40;;;;;;5071571;28;20474;-79
2021/01/25 05:02:49;;;;;;;8.07;6.63;;;-2.60;83.10;;;;;;5067855;28;20447;-82
2021/01/25 05:05:16;;;;;;;10.83;6.83;;;-2.50;82.70;;;;;;5058415;28;20446;-81
2021/01/25 05:07:42;;;;;;;8.90;7.60;;;-2.50;81.70;;;;;;5063057;28;20464;-84
2021/01/25 05:10:10;;;;;;;8.53;6.97;;;-2.40;81.60;;;;;;5070606;28;20525;-80
2021/01/25 05:12:45;;;;;;;8.50;6.60;;;-2.40;79.90;;;;;;5070574;28;20445;-83
2021/01/25 05:15:24;;;;;;;8.37;6.90;;;-2.40;80.20;;;;;;5068852;28;20469;-82
2021/01/25 05:17:51;;;;;;;12.03;7.00;;;-2.60;79.10;;;;;;5064773;28;20439;-83
2021/01/25 05:20:23;;;;;;;10.33;7.30;;;-2.50;79.90;;;;;;5068482;28;20459;-85
2021/01/25 05:22:50;;;;;;;7.97;6.70;;;-2.40;80.40;;;;;;5066830;28;20452;-82
2021/01/25 05:25:24;;;;;;;6.93;5.87;;;-2.40;79.40;;;;;;5070506;28;20449;-84
2021/01/25 05:27:51;;;;;;;8.67;6.87;;;-2.30;79.30;;;;;;5070214;28;20461;-83
2021/01/25 05:30:19;;;;;;;9.80;6.67;;;-2.30;78.50;;;;;;5067591;28;20450;-83
2021/01/25 05:32:47;;;;;;;7.93;6.60;;;-2.20;77.50;;;;;;5074131;28;20435;-83
2021/01/25 05:35:16;;;;;;;7.67;6.00;;;-2.20;77.10;;;;;;5055154;28;20464;-81
2021/01/25 05:37:43;;;;;;;6.43;5.80;;;-2.20;77.50;;;;;;5073315;28;20435;-82
2021/01/25 05:40:15;;;;;;;10.40;6.73;;;-2.10;77.40;;;;;;5050930;28;20465;-82
2021/01/25 05:42:42;;;;;;;7.07;6.20;;;-2.20;77.00;;;;;;5070756;28;20507;-82
2021/01/25 05:45:10;;;;;;;8.97;7.27;;;-2.20;76.80;;;;;;5065940;28;20537;-83
2021/01/25 05:47:44;;;;;;;7.40;5.90;;;-2.20;77.10;;;;;;5065506;28;20447;-82
2021/01/25 05:50:23;;;;;;;7.50;5.90;;;-2.10;76.80;;;;;;5068481;28;20470;-82
2021/01/25 05:52:51;;;;;;;7.10;5.10;;;-2.20;76.20;;;;;;5064102;28;20456;-84
2021/01/25 05:55:18;;;;;;;9.07;6.60;;;-2.10;77.20;;;;;;5064509;28;20448;-82
2021/01/25 05:57:45;;;;;;;7.60;6.43;;;-2.00;76.70;;;;;;5064909;28;20522;-85
2021/01/25 06:00:12;;;;;;;8.07;7.00;;;-2.00;76.70;;;;;;5067726;28;20458;-82
2021/01/25 06:02:41;;;;;;;8.70;6.83;;;-1.90;76.30;;;;;;5065018;28;20978;-84
2021/01/25 06:05:10;;;;;;;7.53;6.70;;;-1.90;76.70;;;;;;5069696;28;20454;-81
2021/01/25 06:07:39;;;;;;;7.60;6.43;;;-1.90;75.80;;;;;;5070038;28;20460;-85
2021/01/25 06:10:12;;;;;;;7.23;6.50;;;-1.90;75.70;;;;;;5063740;28;20453;-85
2021/01/25 06:12:41;;;;;;;7.27;6.07;;;-2.00;76.00;;;;;;5067656;28;20447;-84
2021/01/25 06:15:12;;;;;;;10.30;6.80;;;-2.00;75.90;;;;;;5061488;28;20446;-82
2021/01/25 06:17:39;;;;;;;9.53;6.00;;;-2.00;75.70;;;;;;5067610;28;20452;-85
2021/01/25 06:20:09;;;;;;;7.97;6.40;;;-2.10;75.60;;;;;;5066269;28;20463;-84
2021/01/25 06:22:38;;;;;;;8.70;6.60;;;-2.10;76.20;;;;;;5068609;28;20544;-83
2021/01/25 06:25:07;;;;;;;9.87;6.73;;;-2.10;75.70;;;;;;5062877;28;20468;-83
2021/01/25 06:27:34;;;;;;;7.67;6.97;;;-2.00;76.00;;;;;;5063368;28;20456;-82
2021/01/25 06:30:01;;;;;;;8.00;6.30;;;-1.90;76.00;;;;;;5066858;28;20483;-83
2021/01/25 06:32:31;;;;;;;10.40;7.03;;;-2.00;75.70;;;;;;5067954;28;20515;-82
2021/01/25 06:35:02;;;;;;;5.67;4.93;;;-1.90;75.70;;;;;;5071824;28;20458;-82
2021/01/25 06:37:30;;;;;;;8.20;6.17;;;-2.00;75.30;;;;;;5064091;28;20467;-83
2021/01/25 06:39:58;;;;;;;8.80;6.80;;;-2.00;75.70;;;;;;5066739;28;21136;-83
2021/01/25 06:42:32;;;;;;;7.43;6.60;;;-2.00;76.10;;;;;;5066681;28;20492;-82
2021/01/25 06:45:00;;;;;;;8.80;6.63;;;-2.10;76.40;;;;;;5071369;28;20472;-82
2021/01/25 06:47:27;;;;;;;8.83;7.20;;;-2.00;76.10;;;;;;5069264;28;20518;-84
2021/01/25 06:49:53;;;;;;;8.73;7.20;;;-1.90;76.70;;;;;;5069583;28;20443;-84
2021/01/25 06:52:20;;;;;;;11.10;8.20;;;-2.00;76.20;;;;;;5071396;28;20642;-83
2021/01/25 06:54:46;;;;;;;9.50;8.27;;;-1.90;76.60;;;;;;5070244;28;20528;-79
2021/01/25 06:57:24;;;;;;;10.37;7.63;;;-2.00;76.60;;;;;;5070424;28;20441;-87
2021/01/25 06:59:54;;;;;;;10.43;8.65;;;-2.10;76.90;;;;;;5055180;28;20507;-87
2021/01/25 07:02:26;;;;;;;12.73;8.73;;;-2.10;77.30;;;;;;5076962;28;20194;-91
2021/01/25 07:04:58;;;;;;;11.00;7.80;;;-2.00;77.20;;;;;;5068832;28;20463;-87
2021/01/25 07:13:04;;;;;;;9.63;7.57;;;-2.10;77.50;;;;;;5056702;28;20466;-87
2021/01/25 07:15:34;;;;;;;9.40;7.27;;;-2.10;78.00;;;;;;5057762;28;20940;-88
2021/01/25 07:18:01;;;;;;;8.50;7.63;;;-2.00;77.70;;;;;;5055176;28;20525;-85
2021/01/25 07:20:28;;;;;;;9.27;8.23;;;-1.90;80.40;;;;;;5062862;28;20488;-82
2021/01/25 07:22:55;;;;;;;14.00;8.03;;;-1.80;78.70;;;;;;5067956;28;20442;-82
2021/01/25 07:25:22;;;;;;;10.10;7.37;;;-1.80;77.20;;;;;;5065322;28;20474;-81
2021/01/25 07:27:48;;;;;;;9.90;7.70;;;-2.00;76.30;;;;;;5071593;28;20937;-81
2021/01/25 07:30:18;;;;;;;10.73;8.57;;;-1.90;77.20;;;;;;5063503;28;20457;-80
2021/01/25 07:32:49;;;;;;;10.43;8.07;;;-1.90;78.50;;;;;;5066600;28;20519;-81
2021/01/25 07:35:15;;;;;;;11.47;8.83;;;-1.80;77.60;;;;;;5068153;28;20482;-81
2021/01/25 07:37:42;;;;;;;9.23;8.13;;;-1.70;77.80;;;;;;5065156;28;20461;-80
2021/01/25 07:40:11;;;;;;;15.20;8.03;;;-1.70;78.00;;;;;;5054427;28;20449;-81
2021/01/25 07:42:37;;;;;;;8.87;7.50;;;-1.70;76.80;;;;;;5054859;28;20485;-81
2021/01/25 07:45:05;;;;;;;9.90;7.70;;;-1.60;78.10;;;;;;5056771;28;20475;-81
2021/01/25 07:47:32;;;;;;;9.70;8.63;;;-1.50;79.70;;;;;;5056693;28;20496;-82
2021/01/25 07:50:08;;;;;;;12.97;9.03;;;-1.40;79.80;;;;;;5058572;28;20968;-80
2021/01/25 07:52:35;;;;;;;12.43;9.00;;;-1.40;81.70;;;;;;5060070;28;20446;-80
2021/01/25 07:55:13;;;;;;;15.00;9.30;;;-1.40;80.30;;;;;;5061857;28;20455;-82
2021/01/25 07:57:40;;;;;;;9.53;8.50;;;-1.40;81.50;;;;;;5061421;28;20453;-82
2021/01/25 08:00:23;;;;;;;9.77;7.63;;;-1.30;82.40;;;;;;5059109;28;20461;-81
2021/01/25 08:02:56;;;;;;;13.37;9.13;;;-1.20;83.00;;;;;;5057226;28;20455;-85
2021/01/25 08:05:25;;;;;;;11.83;8.87;;;-1.10;83.60;;;;;;5061556;28;20471;-83
2021/01/25 08:07:54;;;;;;;12.10;9.40;;;-1.00;84.10;;;;;;5063413;28;20914;-83
2021/01/25 08:10:24;;;;;;;12.27;9.20;;;-1.00;83.60;;;;;;5065013;28;20508;-85
2021/01/25 08:12:55;;;;;;;13.33;9.53;;;-1.00;84.20;;;;;;5071031;28;20448;-87
2021/01/25 08:15:30;;;;;;;11.83;8.87;;;-0.80;85.30;;;;;;5064210;28;20462;-85
2021/01/25 08:18:01;;;;;;;14.40;10.20;;;-0.80;84.70;;;;;;5059514;28;21321;-84
2021/01/25 08:20:34;;;;;;;10.03;9.03;;;-0.80;85.40;;;;;;5057333;28;20462;-85
2021/01/25 08:23:06;;;;;;;11.37;9.37;;;-0.80;85.60;;;;;;5059917;28;20475;-86
2021/01/25 08:25:34;;;;;;;17.03;11.00;;;-0.80;85.50;;;;;;5068722;28;20468;-86
2021/01/25 08:28:05;;;;;;;14.80;13.20;;;-0.70;86.30;;;;;;5074835;28;20534;-83
2021/01/25 08:30:37;;;;;;;13.47;10.30;;;-0.70;86.40;;;;;;5060254;28;20194;-84
2021/01/25 08:33:08;;;;;;;11.07;9.00;;;-0.70;87.10;;;;;;5063189;28;20457;-86
2021/01/25 08:35:39;;;;;;;10.10;9.00;;;-0.70;87.00;;;;;;5075952;28;20453;-89
2021/01/25 08:38:16;;;;;;;9.93;8.83;;;-0.70;87.20;;;;;;5069821;28;20448;-89
2021/01/25 08:40:44;;;;;;;9.93;8.88;;;-0.70;87.20;;;;;;5074480;28;20338;-82
2021/01/25 08:43:23;;;;;;;10.17;8.10;;;-0.70;87.10;;;;;;5068666;28;20266;-85
2021/01/25 08:45:52;;;;;;;10.20;8.43;;;-0.70;87.50;;;;;;5067637;28;20458;-84
2021/01/25 08:48:30;;;;;;;9.40;8.37;;;-0.60;87.50;;;;;;5065741;28;20199;-83
2021/01/25 08:51:09;;;;;;;13.47;8.47;;;-0.60;87.30;;;;;;5062236;28;20450;-85
2021/01/25 08:53:36;;;;;;;10.63;8.40;;;-0.60;86.20;;;;;;5054643;28;20488;-83
2021/01/25 08:56:13;;;;;;;8.97;8.07;;;-0.50;86.20;;;;;;5058819;28;20473;-85
2021/01/25 08:58:40;;;;;;;10.17;7.93;;;-0.60;85.80;;;;;;5061228;28;20495;-86
2021/01/25 09:01:16;;;;;;;8.93;8.03;;;-0.50;85.50;;;;;;5063306;28;20475;-83
2021/01/25 09:03:45;;;;;;;9.70;8.70;;;-0.50;85.20;;;;;;5054011;28;20446;-84
2021/01/25 09:06:13;;;;;;;9.33;8.43;;;-0.40;85.30;;;;;;5051057;28;20956;-84
2021/01/25 09:08:41;;;;;;;11.32;9.60;;;-0.30;85.10;;;;;;5057468;28;20437;-84
2021/01/25 09:11:08;;;;;;;11.13;8.07;;;-0.30;84.50;;;;;;5061219;28;20199;-88
2021/01/25 09:13:35;;;;;;;10.67;7.60;;;-0.30;82.90;;;;;;5056500;28;20451;-86
2021/01/25 09:16:03;;;;;;;11.67;6.93;;;-0.10;83.60;;;;;;5061982;28;20457;-89
2021/01/25 09:18:39;;;;;;;8.00;7.00;;;0.00;83.60;;;;;;5039308;28;20986;-88
2021/01/25 09:21:07;;;;;;;8.97;6.80;;;0.10;81.30;;;;;;5057134;28;20485;-86
2021/01/25 09:23:36;;;;;;;10.53;6.87;;;0.10;81.40;;;;;;5049798;28;20546;-89
2021/01/25 09:26:06;;;;;;;7.17;6.23;;;0.20;79.70;;;;;;5054282;28;20563;-89
2021/01/25 09:28:36;;;;;;;8.33;5.80;;;0.30;80.00;;;;;;5055948;28;20464;-90
2021/01/25 09:31:03;;;;;;;7.13;6.53;;;0.40;79.20;;;;;;5061297;28;20457;-85
2021/01/25 09:33:31;;;;;;;9.17;6.37;;;0.50;78.50;;;;;;5057173;28;20935;-89
2021/01/25 09:36:23;;;;;;;8.70;7.70;;;0.50;78.00;;;;;;5060684;28;20455;-86
2021/01/25 09:38:50;;;;;;;7.97;6.63;;;0.60;78.40;;;;;;5063114;28;20445;-84
2021/01/25 09:41:19;;;;;;;8.90;6.03;;;0.70;77.60;;;;;;5072033;28;20550;-84
2021/01/25 09:43:46;;;;;;;8.20;5.90;;;0.70;77.20;;;;;;5071468;28;20457;-86
2021/01/25 09:46:13;;;;;;;10.47;6.00;;;0.80;76.90;;;;;;5075043;28;20447;-84
2021/01/25 09:48:40;;;;;;;6.40;5.80;;;0.90;76.80;;;;;;5063915;28;20528;-87
2021/01/25 09:51:08;;;;;;;8.53;6.37;;;0.90;76.60;;;;;;5070681;28;20468;-86
2021/01/25 09:53:37;;;;;;;8.80;7.00;;;1.00;76.50;;;;;;5070935;28;20508;-86
2021/01/25 09:56:04;;;;;;;9.68;7.03;;;1.10;75.70;;;;;;5058843;28;20440;-85
2021/01/25 09:58:32;;;;;;;6.97;5.47;;;1.10;75.70;;;;;;5054295;28;20397;-86
2021/01/25 10:00:59;;;;;;;8.27;5.00;;;1.20;75.50;;;;;;5057328;28;20496;-85
2021/01/25 10:03:26;;;;;;;8.70;6.10;;;1.10;74.60;;;;;;5052872;28;20453;-85
2021/01/25 10:05:53;;;;;;;9.07;6.20;;;1.10;74.40;;;;;;5054672;28;20869;-86
2021/01/25 10:08:21;;;;;;;9.20;6.00;;;1.20;74.90;;;;;;5061608;28;20571;-88
2021/01/25 10:10:49;;;;;;;8.37;5.97;;;1.20;74.30;;;;;;5056101;28;20456;-85
2021/01/25 10:13:16;;;;;;;6.07;5.47;;;1.30;74.00;;;;;;5063363;28;20464;-85
2021/01/25 10:15:52;;;;;;;6.97;5.77;;;1.40;74.00;;;;;;5062393;28;20455;-91
2021/01/25 10:18:19;;;;;;;6.63;5.60;;;1.40;73.90;;;;;;5045517;28;20456;-85
2021/01/25 10:20:46;;;;;;;7.10;5.83;;;1.40;73.70;;;;;;5043193;28;20483;-86
2021/01/25 10:23:13;;;;;;;6.50;5.80;;;1.50;73.40;;;;;;5058811;28;20927;-88
2021/01/25 10:25:41;;;;;;;8.83;6.10;;;1.50;73.80;;;;;;5057854;28;20506;-87
2021/01/25 10:28:20;;;;;;;5.90;5.33;;;1.70;73.30;;;;;;5062778;28;20456;-87
2021/01/25 10:30:55;;;;;;;7.20;5.30;;;1.70;73.30;;;;;;5063218;28;20447;-86
2021/01/25 10:33:22;;;;;;;8.57;5.20;;;2.00;73.20;;;;;;5066317;28;20453;-87
2021/01/25 10:35:50;;;;;;;6.93;5.57;;;1.90;71.90;;;;;;5055232;28;20469;-86
2021/01/25 10:38:17;;;;;;;6.00;4.90;;;2.00;71.90;;;;;;5064255;28;20519;-86
2021/01/25 10:40:46;;;;;;;7.17;4.60;;;2.00;71.50;;;;;;5073990;28;20464;-87
2021/01/25 10:43:15;;;;;;;5.23;4.20;;;2.10;71.90;;;;;;5073750;28;20445;-87
2021/01/25 10:45:43;;;;;;;7.28;5.03;;;2.20;71.00;;;;;;5071646;28;20530;-84
2021/01/25 10:48:34;;;;;;;4.88;4.47;;;2.40;71.60;;;;;;5066682;28;20444;-88
2021/01/25 10:51:02;;;;;;;4.30;3.90;;;2.30;71.10;;;;;;5067509;28;20270;-83
2021/01/25 10:53:29;;;;;;;4.77;4.30;;;2.40;71.60;;;;;;5069900;28;20452;-86
2021/01/25 10:56:05;;;;;;;4.60;3.90;;;2.40;70.90;;;;;;5056884;28;20480;-85
2021/01/25 10:58:33;;;;;;;5.80;4.83;;;2.50;71.00;;;;;;5054475;28;20830;-87
2021/01/25 11:01:00;;;;;;;7.53;6.70;;;2.50;71.10;;;;;;5064005;28;20959;-87
2021/01/25 11:03:27;;;;;;;9.40;5.17;;;2.60;70.70;;;;;;5050931;28;20477;-85
2021/01/25 11:05:56;;;;;;;4.70;4.30;;;2.70;71.00;;;;;;5066117;28;20491;-82
2021/01/25 11:08:23;;;;;;;6.93;4.60;;;2.70;70.30;;;;;;5064030;28;20453;-85
2021/01/25 11:10:49;;;;;;;10.50;4.80;;;2.80;71.00;;;;;;5065959;28;21017;-87
2021/01/25 11:13:16;;;;;;;4.63;4.23;;;2.90;72.20;;;;;;5043558;28;20454;-86
2021/01/25 11:15:44;;;;;;;5.27;4.40;;;3.10;72.90;;;;;;5046311;28;20479;-87
2021/01/25 11:18:10;;;;;;;5.80;5.30;;;3.10;72.10;;;;;;5058494;28;20449;-85
2021/01/25 11:20:37;;;;;;;7.03;5.43;;;3.10;72.00;;;;;;5068645;28;20476;-86
2021/01/25 11:23:04;;;;;;;5.60;5.00;;;3.10;70.80;;;;;;5061148;28;20505;-86
2021/01/25 11:25:32;;;;;;;7.30;4.73;;;3.10;71.10;;;;;;5063052;28;20453;-85
2021/01/25 11:27:59;;;;;;;5.33;4.83;;;3.10;71.20;;;;;;5058370;28;20453;-87
2021/01/25 11:30:27;;;;;;;7.83;5.23;;;3.20;71.10;;;;;;5064460;28;20454;-86
2021/01/25 11:32:55;;;;;;;7.33;6.27;;;3.30;70.90;;;;;;5047846;28;20462;-87
2021/01/25 11:35:22;;;;;;;6.50;5.50;;;3.30;70.80;;;;;;5066844;28;20959;-86
2021/01/25 11:37:49;;;;;;;6.20;5.60;;;2.90;70.30;;;;;;5064481;28;20457;-87
2021/01/25 11:40:16;;;;;;;7.40;5.90;;;3.00;71.00;;;;;;5067503;28;20459;-85
2021/01/25 11:42:45;;;;;;;8.33;6.50;;;3.00;70.50;;;;;;5062498;28;20477;-84
2021/01/25 11:45:14;;;;;;;9.73;8.50;;;3.00;71.10;;;;;;5040699;28;20446;-86
2021/01/25 11:47:41;;;;;;;6.93;6.23;;;3.10;71.30;;;;;;5057755;28;20518;-88
2021/01/25 11:50:12;;;;;;;8.67;6.00;;;3.30;71.10;;;;;;5046747;28;20861;-87
2021/01/25 11:52:39;;;;;;;7.53;6.20;;;3.40;70.00;;;;;;5065583;28;20453;-82
2021/01/25 11:55:07;;;;;;;6.80;6.00;;;3.50;70.50;;;;;;5060122;28;20533;-82
2021/01/25 11:57:33;;;;;;;6.73;6.03;;;3.30;69.90;;;;;;5045840;28;21312;-83
2021/01/25 12:00:00;;;;;;;7.00;6.30;;;3.40;70.10;;;;;;5058396;28;20451;-82
2021/01/25 12:02:26;;;;;;;7.80;6.80;;;3.30;69.50;;;;;;5056292;28;20476;-82
2021/01/25 12:04:54;;;;;;;7.10;6.40;;;3.30;69.70;;;;;;5057989;28;20461;-85
2021/01/25 12:07:30;;;;;;;7.00;6.30;;;3.40;70.20;;;;;;5062027;28;20442;-84
2021/01/25 12:10:18;;;;;;;6.30;5.70;;;3.50;70.20;;;;;;5065604;28;20448;-85
2021/01/25 12:12:44;;;;;;;7.23;6.50;;;3.40;69.50;;;;;;5057105;28;20465;-86
2021/01/25 12:15:12;;;;;;;7.63;6.83;;;3.30;70.00;;;;;;5057598;28;20457;-86
2021/01/25 12:17:39;;;;;;;8.80;7.40;;;3.40;70.00;;;;;;5064686;28;20604;-85
2021/01/25 12:20:07;;;;;;;8.40;6.80;;;3.50;69.80;;;;;;5052178;28;20521;-86
2021/01/25 12:22:35;;;;;;;8.97;7.70;;;3.50;69.90;;;;;;5069698;28;20792;-85
2021/01/25 12:25:01;;;;;;;7.80;7.00;;;3.40;69.60;;;;;;5059430;28;20492;-87
2021/01/25 12:27:28;;;;;;;10.57;7.07;;;3.60;69.80;;;;;;5072702;28;20498;-86
2021/01/25 12:29:55;;;;;;;7.37;6.77;;;3.50;69.30;;;;;;5069344;28;20459;-87
2021/01/25 12:32:22;;;;;;;9.90;7.50;;;3.50;69.60;;;;;;5067643;28;20471;-87
2021/01/25 12:34:52;;;;;;;12.50;7.50;;;3.60;69.50;;;;;;5070237;28;20464;-84
2021/01/25 12:37:20;;;;;;;9.40;6.93;;;3.70;69.30;;;;;;5069497;28;20469;-85
2021/01/25 12:39:51;;;;;;;9.30;6.47;;;3.90;69.00;;;;;;5065878;28;20450;-85
2021/01/25 12:42:18;;;;;;;8.13;7.33;;;3.90;67.90;;;;;;5058195;28;20530;-84
2021/01/25 12:44:45;;;;;;;8.43;7.63;;;3.90;68.00;;;;;;5043716;28;20518;-85
2021/01/25 12:47:13;;;;;;;8.03;7.20;;;3.80;67.00;;;;;;5059232;28;20472;-87
2021/01/25 12:49:40;;;;;;;9.00;7.50;;;3.40;67.30;;;;;;5060141;28;20453;-85
2021/01/25 12:52:07;;;;;;;9.30;7.80;;;3.20;67.90;;;;;;5055781;28;20453;-82
2021/01/25 12:54:34;;;;;;;9.30;8.30;;;3.00;68.30;;;;;;5068681;28;20544;-83
2021/01/25 12:57:02;;;;;;;9.77;8.33;;;2.60;68.10;;;;;;5063544;28;20529;-82
2021/01/25 12:59:28;;;;;;;8.57;7.77;;;2.30;68.40;;;;;;5066563;28;20452;-85